Sierra Blanca Regional Airport
KSRR : rendu visible

Aérodrome :











RETROUVEZ-NOUS SUR...

 
LOGIN :

S'inscrire | Disclaimer

   EN    FR    IT 

 









Légende :    VFR   VFR Marginal   IFR   IFR Intensif   IFR Très Intensif
Visi : 
Plafond : 
>= 8 km
>= 3000ft
5 à 8 km
1000 à 3000 ft
1500m à 5 km
500 à 1000 ft
800 à 1500m
200 à 500 ft
< 800m
< 200 ft
Symboles :   Orages  Brouillard  Fortes neiges  Fortes précipitations  Vent > 20 kt






- Altitude de l'aérodrome : 6814 ft


KSRR - Sierra Blanca Regional

DERNIER METAR :
  • 201155Z AUTO 10SM BKN031 BKN037 09/06 A2986 RMK AO2

METARs EXPIRÉS :
  • 201135Z AUTO 16006KT 10SM OVC033 09/06 A2987 RMK AO2
  • 201115Z AUTO 16004KT 10SM OVC035 09/07 A2987 RMK AO2
  • 201055Z AUTO 19005KT 10SM BKN030 OVC035 09/07 A2988 RMK AO2
  • 201035Z AUTO 19008KT 10SM BKN030 BKN037 OVC048 10/07 A2990 RMK AO2
  • 201015Z AUTO 20009KT 10SM SCT044 BKN050 OVC060 09/07 A2991 RMK AO2
  • 200955Z AUTO 20008KT 10SM BKN060 BKN075 OVC090 09/07 A2991 RMK AO2
  • 200935Z AUTO 21012KT 10SM FEW060 OVC075 10/07 A2991 RMK AO2
  • 200915Z AUTO 22014KT 10SM SCT018 OVC075 10/07 A2993 RMK AO2

TAF N/A



MET'MAP, la Météo Aéronautique d'un coup d'oeil ! - Copyright ORBIFLY Décembre 2007 - Disclaimer

ORBIFLY MET'MAP TEAM :

Programmation & Développement : Alexandra Zaïnal
Conception & Développement : Baudouin d'Aumeries
Co-Programmation & Développement : Marc-Olivier Méhu
Soutien technique & logistique : Manuel Goepfert

Contact : metmap@orbifly.com




SOURCES & CREDITS :

   NOAA       Earth
Advisory